createdAt,value
2018-09-13T00:00:47.583Z,72.41
2018-09-13T00:03:16.737Z,71.98
2018-09-13T00:05:46.426Z,72.12
2018-09-13T00:08:15.540Z,71.92
2018-09-13T00:10:44.533Z,72.49
2018-09-13T00:13:13.607Z,72.07
2018-09-13T00:15:42.598Z,72.32
2018-09-13T00:18:11.722Z,72.07
2018-09-13T00:20:40.723Z,72.15
2018-09-13T00:23:10.175Z,72.22
2018-09-13T00:25:39.171Z,72.45
2018-09-13T00:28:08.107Z,72.66
2018-09-13T00:30:37.113Z,72.83
2018-09-13T00:33:06.096Z,73.03
2018-09-13T00:35:35.152Z,72.94
2018-09-13T00:38:05.191Z,73.20
2018-09-13T00:40:34.151Z,72.96
2018-09-13T00:43:03.202Z,72.79
2018-09-13T00:45:32.287Z,72.76
2018-09-13T00:48:01.266Z,72.52
2018-09-13T00:50:30.435Z,72.42
2018-09-13T00:52:59.514Z,72.42
2018-09-13T00:55:28.713Z,72.52
2018-09-13T00:57:57.731Z,72.44
2018-09-13T01:00:26.739Z,72.66
2018-09-13T01:02:55.871Z,72.74
2018-09-13T01:05:24.874Z,72.57
2018-09-13T01:07:53.896Z,72.41
2018-09-13T01:10:23.071Z,72.71
2018-09-13T01:12:52.288Z,73.12
2018-09-13T01:15:21.264Z,73.03
2018-09-13T01:17:50.359Z,73.15
2018-09-13T01:20:19.385Z,73.23
2018-09-13T01:22:48.379Z,73.12
2018-09-13T01:25:17.334Z,72.55
2018-09-13T01:27:46.342Z,72.51
2018-09-13T01:30:15.440Z,72.53
2018-09-13T01:32:44.410Z,72.45
2018-09-13T01:35:13.405Z,72.62
2018-09-13T01:37:42.405Z,72.47
2018-09-13T01:40:11.387Z,72.26
2018-09-13T01:42:40.407Z,72.26
2018-09-13T01:45:09.572Z,72.36
2018-09-13T01:47:38.629Z,72.62
2018-09-13T01:50:07.812Z,72.83
2018-09-13T01:52:36.820Z,72.82
2018-09-13T01:55:05.883Z,72.82
2018-09-13T01:57:35.133Z,72.70
2018-09-13T02:00:04.319Z,72.80
2018-09-13T02:02:33.320Z,72.96
2018-09-13T02:05:02.591Z,73.13
2018-09-13T02:07:31.640Z,73.11
2018-09-13T02:10:01.647Z,73.15
2018-09-13T02:12:31.055Z,73.24
2018-09-13T02:15:00.110Z,73.41
2018-09-13T02:17:30.834Z,73.23
2018-09-13T02:19:59.827Z,73.06
2018-09-13T02:22:28.953Z,73.12
2018-09-13T02:24:58.184Z,73.36
2018-09-13T02:27:27.421Z,73.70
2018-09-13T02:29:56.451Z,73.59
2018-09-13T02:32:25.542Z,73.62
2018-09-13T02:34:54.726Z,73.54
2018-09-13T02:37:23.789Z,73.60
2018-09-13T02:39:52.829Z,73.84
2018-09-13T02:42:21.900Z,73.64
2018-09-13T02:44:50.947Z,73.53
2018-09-13T02:47:19.964Z,73.52
2018-09-13T02:49:50.368Z,73.58
2018-09-13T02:52:19.382Z,73.43
2018-09-13T02:54:48.400Z,73.16
2018-09-13T02:57:17.377Z,73.22
2018-09-13T02:59:46.440Z,72.82
2018-09-13T03:02:15.481Z,73.38
2018-09-13T03:04:44.450Z,73.06
2018-09-13T03:07:13.425Z,72.86
2018-09-13T03:09:42.424Z,72.81
2018-09-13T03:12:11.399Z,73.02
2018-09-13T03:14:40.376Z,73.14
2018-09-13T03:17:09.438Z,73.17
2018-09-13T03:19:38.462Z,73.03
2018-09-13T03:22:07.576Z,73.09
2018-09-13T03:24:36.544Z,72.79
2018-09-13T03:27:05.591Z,72.88
2018-09-13T03:29:34.672Z,73.07
2018-09-13T03:32:03.638Z,73.18
2018-09-13T03:34:32.678Z,73.19
2018-09-13T03:37:01.725Z,73.05
2018-09-13T03:39:30.838Z,72.97
2018-09-13T03:41:59.865Z,73.04
2018-09-13T03:44:28.901Z,72.95
2018-09-13T03:46:57.965Z,72.79
2018-09-13T03:49:26.969Z,72.97
2018-09-13T03:51:57.751Z,73.13
2018-09-13T03:54:26.726Z,73.00
2018-09-13T03:56:55.698Z,72.95
2018-09-13T03:59:24.862Z,73.06
2018-09-13T04:01:53.922Z,73.03
2018-09-13T04:04:23.138Z,72.83
2018-09-13T04:06:52.207Z,72.61
2018-09-13T04:09:21.278Z,72.43
2018-09-13T04:11:50.321Z,72.46
2018-09-13T04:14:19.404Z,72.66
2018-09-13T04:16:48.570Z,73.07
2018-09-13T04:19:17.571Z,73.16
2018-09-13T04:21:46.597Z,73.43
2018-09-13T04:24:15.649Z,73.73
2018-09-13T04:26:44.584Z,73.58
2018-09-13T04:29:13.649Z,73.82
2018-09-13T04:31:42.655Z,73.83
2018-09-13T04:34:11.716Z,73.74
2018-09-13T04:36:40.796Z,73.77
2018-09-13T04:39:10.113Z,73.77
2018-09-13T04:41:39.106Z,73.77
2018-09-13T04:44:08.201Z,73.73
2018-09-13T04:46:37.193Z,73.93
2018-09-13T04:49:06.757Z,73.92
2018-09-13T04:51:35.745Z,73.98
2018-09-13T04:54:04.822Z,73.91
2018-09-13T04:56:33.764Z,73.82
2018-09-13T04:59:03.006Z,73.61
2018-09-13T05:01:32.870Z,73.58
2018-09-13T05:04:01.872Z,73.40
2018-09-13T05:06:31.078Z,73.22
2018-09-13T05:09:00.128Z,73.24
2018-09-13T05:11:29.200Z,72.94
2018-09-13T05:13:58.185Z,73.38
2018-09-13T05:16:27.234Z,73.07
2018-09-13T05:18:56.287Z,73.30
2018-09-13T05:21:25.330Z,73.45
2018-09-13T05:23:54.274Z,73.33
2018-09-13T05:26:23.371Z,73.31
2018-09-13T05:28:52.737Z,73.33
2018-09-13T05:31:21.867Z,73.49
2018-09-13T05:33:50.936Z,73.47
2018-09-13T05:36:19.925Z,73.32
2018-09-13T05:38:48.962Z,73.49
2018-09-13T05:41:18.022Z,73.32
2018-09-13T05:43:47.142Z,73.63
2018-09-13T05:46:16.289Z,73.58
2018-09-13T05:48:45.292Z,73.65
2018-09-13T05:51:16.416Z,73.76
2018-09-13T05:53:45.400Z,73.63
2018-09-13T05:56:15.273Z,73.73
2018-09-13T05:58:44.341Z,74.01
2018-09-13T06:01:13.413Z,74.08
2018-09-13T06:03:42.513Z,73.78
2018-09-13T06:06:11.703Z,73.74
2018-09-13T06:08:41.606Z,74.05
2018-09-13T06:11:10.669Z,73.50
2018-09-13T06:13:39.901Z,73.78
2018-09-13T06:16:09.040Z,73.63
2018-09-13T06:18:39.826Z,73.56
2018-09-13T06:21:08.956Z,73.77
2018-09-13T06:23:38.088Z,73.72
2018-09-13T06:26:07.421Z,73.54
2018-09-13T06:28:36.491Z,73.85
2018-09-13T06:31:05.532Z,73.97
2018-09-13T06:33:35.089Z,73.87
2018-09-13T06:36:04.235Z,73.43
2018-09-13T06:38:33.373Z,73.51
2018-09-13T06:41:02.583Z,73.51
2018-09-13T06:43:32.970Z,73.40
2018-09-13T06:46:02.546Z,73.21
2018-09-13T06:48:31.710Z,73.14
2018-09-13T06:51:00.743Z,72.86
2018-09-13T06:53:29.707Z,72.52
2018-09-13T06:55:58.775Z,71.61
2018-09-13T06:58:27.868Z,70.71
2018-09-13T07:00:56.955Z,69.84
2018-09-13T07:03:25.934Z,69.69
2018-09-13T07:05:55.950Z,69.51
2018-09-13T07:08:25.105Z,69.76
2018-09-13T07:10:55.131Z,69.99
2018-09-13T07:13:24.224Z,70.17
2018-09-13T07:15:53.541Z,70.67
2018-09-13T07:18:22.730Z,70.80
2018-09-13T07:20:52.791Z,70.79
2018-09-13T07:23:22.025Z,71.03
2018-09-13T07:25:51.088Z,71.04
2018-09-13T07:28:22.885Z,70.94
2018-09-13T07:33:48.015Z,70.76
2018-09-13T07:36:17.272Z,70.60
2018-09-13T07:38:46.690Z,70.83
2018-09-13T07:41:15.764Z,70.44
2018-09-13T07:43:44.869Z,70.62
2018-09-13T07:46:13.930Z,70.59
2018-09-13T07:48:43.730Z,70.34
2018-09-13T07:51:12.830Z,70.59
2018-09-13T07:53:41.967Z,70.29
2018-09-13T07:56:11.202Z,70.20
2018-09-13T07:58:40.280Z,69.90
2018-09-13T08:01:10.176Z,69.41
2018-09-13T08:03:41.203Z,69.87
2018-09-13T08:06:10.523Z,69.71
2018-09-13T08:08:39.529Z,69.88
2018-09-13T08:11:08.643Z,70.03
2018-09-13T08:13:37.760Z,70.22
2018-09-13T08:16:06.837Z,70.06
2018-09-13T08:18:36.005Z,70.06
2018-09-13T08:21:05.113Z,70.08
2018-09-13T08:23:34.112Z,70.07
2018-09-13T08:26:03.613Z,70.11
2018-09-13T08:28:32.724Z,70.15
2018-09-13T08:31:01.816Z,70.13
2018-09-13T08:33:30.919Z,69.82
2018-09-13T08:36:00.046Z,69.61
2018-09-13T08:38:29.114Z,69.03
2018-09-13T08:40:58.248Z,68.90
2018-09-13T08:43:27.531Z,68.69
2018-09-13T08:45:57.818Z,68.27
2018-09-13T08:48:26.854Z,68.12
2018-09-13T08:50:56.293Z,68.26
2018-09-13T08:53:25.385Z,68.21
2018-09-13T08:55:54.407Z,68.02
2018-09-13T08:58:24.191Z,68.15
2018-09-13T09:00:53.367Z,68.46
2018-09-13T09:03:22.609Z,68.33
2018-09-13T09:05:51.809Z,68.48
2018-09-13T09:08:20.858Z,68.68
2018-09-13T09:10:50.046Z,68.43
2018-09-13T09:13:19.244Z,68.72
2018-09-13T09:15:48.523Z,68.16
2018-09-13T09:18:17.597Z,68.15
2018-09-13T09:20:46.696Z,68.11
2018-09-13T09:23:15.768Z,67.82
2018-09-13T09:25:44.802Z,67.60
2018-09-13T09:28:13.906Z,67.58
2018-09-13T09:30:48.008Z,67.52
2018-09-13T09:33:17.124Z,67.13
2018-09-13T09:35:46.175Z,67.28
2018-09-13T09:38:15.477Z,66.68
2018-09-13T09:40:44.586Z,66.87
2018-09-13T09:43:14.849Z,66.64
2018-09-13T09:45:45.440Z,66.44
2018-09-13T09:48:14.876Z,66.14
2018-09-13T09:50:52.087Z,66.03
2018-09-13T09:53:21.242Z,65.21
2018-09-13T09:55:50.392Z,65.11
2018-09-13T09:58:19.439Z,64.83
2018-09-13T10:00:53.693Z,64.53
2018-09-13T10:03:22.849Z,64.35
2018-09-13T10:05:51.888Z,63.70
2018-09-13T10:08:21.041Z,63.94
2018-09-13T10:10:50.336Z,63.32
2018-09-13T10:13:19.418Z,63.32
2018-09-13T10:15:53.465Z,63.01
2018-09-13T10:18:27.696Z,62.47
2018-09-13T10:23:43.250Z,62.20
2018-09-13T10:26:17.813Z,61.93
2018-09-13T10:28:53.008Z,61.71
2018-09-13T10:31:27.872Z,61.46
2018-09-13T10:34:04.303Z,61.14
2018-09-13T10:36:39.239Z,60.60
2018-09-13T10:39:14.691Z,60.20
2018-09-13T10:41:48.901Z,59.63
2018-09-13T10:44:23.089Z,59.41
2018-09-13T10:47:03.244Z,59.37
2018-09-13T10:49:42.936Z,59.45
2018-09-13T10:52:18.384Z,59.30
2018-09-13T10:54:50.059Z,59.12
2018-09-13T10:57:25.235Z,58.78
2018-09-13T10:59:55.045Z,58.43
2018-09-13T11:02:24.189Z,58.02
2018-09-13T11:04:53.648Z,58.09
2018-09-13T11:07:23.053Z,57.57
2018-09-13T11:09:53.186Z,56.87
2018-09-13T11:12:34.040Z,56.75
2018-09-13T11:15:10.044Z,56.68
2018-09-13T11:17:39.137Z,56.43
2018-09-13T11:20:08.249Z,56.00
2018-09-13T11:22:42.662Z,56.49
2018-09-13T11:25:12.057Z,56.01
2018-09-13T11:27:43.003Z,56.03
2018-09-13T11:30:12.399Z,55.90
2018-09-13T11:32:42.253Z,56.15
2018-09-13T11:35:11.433Z,56.09
2018-09-13T11:37:40.574Z,56.39
2018-09-13T11:40:10.377Z,56.52
2018-09-13T11:42:39.464Z,56.36
2018-09-13T11:45:09.328Z,56.36
2018-09-13T11:47:38.872Z,56.13
2018-09-13T11:50:08.241Z,55.99
2018-09-13T11:52:41.582Z,56.01
2018-09-13T11:55:10.617Z,55.94
2018-09-13T11:57:39.767Z,56.09
2018-09-13T12:00:10.703Z,56.16
2018-09-13T12:02:40.623Z,56.09
2018-09-13T12:05:09.709Z,56.17
2018-09-13T12:07:38.739Z,56.20
2018-09-13T12:10:08.129Z,56.32
2018-09-13T12:12:37.442Z,56.25
2018-09-13T12:15:07.072Z,56.28
2018-09-13T12:17:36.159Z,56.34
2018-09-13T12:20:05.352Z,56.48
2018-09-13T12:22:35.024Z,56.27
2018-09-13T12:25:04.982Z,56.09
2018-09-13T12:27:34.601Z,56.01
2018-09-13T12:30:04.705Z,56.06
2018-09-13T12:32:33.886Z,55.91
2018-09-13T12:35:03.784Z,55.92
2018-09-13T12:37:33.002Z,55.57
2018-09-13T12:40:02.129Z,55.54
2018-09-13T12:42:31.179Z,55.69
2018-09-13T12:45:00.248Z,55.83
2018-09-13T12:47:30.841Z,55.71
2018-09-13T12:50:00.788Z,55.69
2018-09-13T12:52:30.821Z,55.94
2018-09-13T12:54:59.975Z,56.11
2018-09-13T12:57:29.001Z,55.96
2018-09-13T12:59:58.136Z,55.87
2018-09-13T13:02:28.280Z,55.87
2018-09-13T13:04:57.668Z,55.78
2018-09-13T13:07:26.930Z,55.74
2018-09-13T13:09:55.942Z,55.90
2018-09-13T13:12:24.975Z,55.61
2018-09-13T13:14:55.200Z,55.40
2018-09-13T13:17:24.574Z,55.23
2018-09-13T13:19:53.861Z,55.58
2018-09-13T13:22:22.935Z,55.81
2018-09-13T13:24:52.033Z,55.93
2018-09-13T13:27:21.730Z,55.83
2018-09-13T13:29:51.046Z,55.75
2018-09-13T13:32:20.120Z,55.98
2018-09-13T13:34:49.198Z,55.89
2018-09-13T13:37:18.356Z,55.67
2018-09-13T13:39:47.528Z,55.72
2018-09-13T13:42:18.082Z,55.28
2018-09-13T13:44:47.188Z,55.25
2018-09-13T13:47:16.328Z,55.13
2018-09-13T13:49:45.490Z,55.00
2018-09-13T13:52:14.494Z,54.92
2018-09-13T13:54:43.562Z,54.55
2018-09-13T13:57:12.588Z,54.63
2018-09-13T13:59:42.246Z,54.63
2018-09-13T14:02:11.519Z,54.67
2018-09-13T14:04:40.570Z,54.49
2018-09-13T14:07:09.777Z,54.50
2018-09-13T14:09:38.860Z,54.68
2018-09-13T14:12:08.009Z,54.68
2018-09-13T14:14:38.181Z,54.75
2018-09-13T14:17:07.315Z,54.29
2018-09-13T14:19:36.931Z,54.39
2018-09-13T14:22:06.270Z,54.54
2018-09-13T14:24:35.815Z,54.26
2018-09-13T14:27:04.921Z,54.06
2018-09-13T14:29:33.908Z,54.12
2018-09-13T14:32:03.203Z,54.46
2018-09-13T14:34:32.353Z,54.31
2018-09-13T14:37:01.437Z,54.57
2018-09-13T14:39:31.600Z,54.49
2018-09-13T14:42:02.217Z,54.58
2018-09-13T14:44:31.281Z,54.66
2018-09-13T14:47:00.310Z,54.70
2018-09-13T14:49:29.322Z,54.57
2018-09-13T14:51:58.478Z,54.67
2018-09-13T14:54:27.554Z,54.72
2018-09-13T14:56:56.752Z,54.60
2018-09-13T14:59:26.764Z,54.48
2018-09-13T15:01:55.926Z,54.53
2018-09-13T15:04:25.172Z,54.50
2018-09-13T15:06:54.455Z,54.51
2018-09-13T15:09:23.739Z,54.59
2018-09-13T15:14:32.678Z,54.62
2018-09-13T15:17:01.780Z,54.81
2018-09-13T15:19:31.184Z,54.65
2018-09-13T15:22:00.305Z,54.65
2018-09-13T15:24:29.422Z,54.37
2018-09-13T15:26:59.105Z,54.37
2018-09-13T15:29:28.286Z,54.55
2018-09-13T15:31:59.448Z,54.47
2018-09-13T15:34:40.913Z,54.67
2018-09-13T15:37:10.388Z,54.66
2018-09-13T15:39:39.546Z,54.87
2018-09-13T15:42:08.603Z,55.15
2018-09-13T15:44:39.765Z,55.40
2018-09-13T15:47:09.562Z,55.75
2018-09-13T15:49:38.732Z,56.08
2018-09-13T15:52:07.743Z,56.31
2018-09-13T15:54:36.707Z,56.40
2018-09-13T15:57:05.814Z,56.72
2018-09-13T15:59:34.975Z,56.76
2018-09-13T16:02:04.091Z,56.86
2018-09-13T16:04:33.123Z,56.89
2018-09-13T16:07:02.208Z,56.85
2018-09-13T16:09:31.197Z,56.94
2018-09-13T16:12:00.194Z,56.82
2018-09-13T16:14:29.235Z,57.04
2018-09-13T16:16:58.343Z,56.88
2018-09-13T16:19:27.383Z,57.14
2018-09-13T16:21:56.553Z,57.17
2018-09-13T16:24:25.580Z,57.26
2018-09-13T16:26:55.470Z,57.17
2018-09-13T16:29:24.522Z,57.19
2018-09-13T16:31:53.596Z,57.14
2018-09-13T16:34:22.735Z,57.29
2018-09-13T16:36:59.443Z,57.33
2018-09-13T16:39:33.408Z,57.54
2018-09-13T16:42:07.841Z,57.55
2018-09-13T16:44:41.950Z,57.46
2018-09-13T16:47:16.452Z,57.57
2018-09-13T16:49:47.350Z,57.60
2018-09-13T16:52:16.507Z,58.12
2018-09-13T16:54:46.525Z,58.48
2018-09-13T16:57:15.544Z,58.67
2018-09-13T16:59:44.707Z,58.86
2018-09-13T17:02:13.698Z,58.99
2018-09-13T17:04:42.856Z,59.02
2018-09-13T17:07:11.925Z,58.91
2018-09-13T17:09:41.000Z,58.77
2018-09-13T17:12:10.647Z,58.31
2018-09-13T17:14:39.745Z,58.10
2018-09-13T17:17:08.766Z,57.82
2018-09-13T17:19:37.740Z,57.79
2018-09-13T17:22:07.175Z,57.53
2018-09-13T17:24:36.186Z,57.61
2018-09-13T17:27:05.684Z,57.53
2018-09-13T17:29:34.625Z,57.51
2018-09-13T17:32:03.768Z,57.49
2018-09-13T17:34:33.472Z,57.31
2018-09-13T17:37:02.526Z,57.41
2018-09-13T17:39:31.559Z,57.51
2018-09-13T17:42:02.213Z,57.67
2018-09-13T17:44:31.247Z,57.73
2018-09-13T17:47:00.253Z,57.85
2018-09-13T17:49:29.284Z,57.88
2018-09-13T17:51:59.190Z,58.03
2018-09-13T17:54:29.263Z,58.15
2018-09-13T17:57:06.603Z,58.24
2018-09-13T17:59:35.599Z,58.55
2018-09-13T18:02:04.704Z,58.63
2018-09-13T18:04:33.807Z,58.76
2018-09-13T18:07:02.848Z,58.84
2018-09-13T18:09:31.874Z,58.77
2018-09-13T18:12:00.952Z,58.81
2018-09-13T18:14:29.913Z,58.94
2018-09-13T18:16:59.055Z,59.05
2018-09-13T18:19:28.060Z,59.03
2018-09-13T18:21:57.732Z,59.10
2018-09-13T18:24:27.379Z,59.20
2018-09-13T18:26:56.404Z,59.39
2018-09-13T18:29:25.383Z,59.41
2018-09-13T18:31:54.431Z,59.47
2018-09-13T18:34:23.747Z,59.45
2018-09-13T18:36:52.814Z,59.46
2018-09-13T18:39:21.908Z,59.63
2018-09-13T18:41:50.922Z,59.62
2018-09-13T18:44:19.995Z,59.86
2018-09-13T18:46:48.994Z,59.89
2018-09-13T18:49:19.015Z,59.93
2018-09-13T18:51:48.109Z,59.94
2018-09-13T18:54:17.224Z,60.00
2018-09-13T18:56:46.262Z,59.92
2018-09-13T18:59:15.248Z,59.99
2018-09-13T19:01:44.278Z,60.06
2018-09-13T19:04:13.333Z,60.19
2018-09-13T19:06:42.709Z,60.29
2018-09-13T19:09:12.337Z,60.40
2018-09-13T19:11:41.442Z,60.60
2018-09-13T19:14:10.531Z,60.88
2018-09-13T19:16:39.673Z,60.83
2018-09-13T19:19:09.075Z,60.90
2018-09-13T19:21:38.176Z,60.69
2018-09-13T19:24:07.303Z,60.59
2018-09-13T19:26:36.447Z,60.50
2018-09-13T19:29:11.191Z,60.50
2018-09-13T19:31:40.315Z,60.37
2018-09-13T19:34:09.452Z,60.33
2018-09-13T19:36:38.471Z,60.48
2018-09-13T19:39:10.284Z,60.26
2018-09-13T19:41:39.632Z,60.23
2018-09-13T19:44:08.704Z,60.32
2018-09-13T19:46:38.625Z,60.44
2018-09-13T19:49:07.626Z,60.47
2018-09-13T19:51:36.842Z,60.56
2018-09-13T19:54:05.985Z,60.59
2018-09-13T19:56:35.113Z,60.73
2018-09-13T19:59:06.175Z,60.73
2018-09-13T20:01:35.278Z,60.93
2018-09-13T20:04:04.366Z,60.99
2018-09-13T20:06:34.411Z,60.94
2018-09-13T20:09:03.583Z,61.07
2018-09-13T20:11:32.658Z,61.10
2018-09-13T20:14:01.836Z,61.10
2018-09-13T20:16:30.960Z,61.46
2018-09-13T20:18:59.971Z,61.33
2018-09-13T20:21:30.298Z,61.31
2018-09-13T20:23:59.314Z,61.64
2018-09-13T20:26:28.284Z,61.39
2018-09-13T20:28:57.337Z,61.29
2018-09-13T20:31:26.335Z,60.98
2018-09-13T20:33:55.330Z,60.97
2018-09-13T20:36:24.473Z,60.76
2018-09-13T20:38:54.409Z,60.62
2018-09-13T20:41:23.439Z,60.48
2018-09-13T20:43:52.615Z,60.67
2018-09-13T20:46:21.917Z,60.71
2018-09-13T20:48:52.131Z,60.72
2018-09-13T20:51:21.949Z,60.71
2018-09-13T20:53:53.099Z,60.59
2018-09-13T20:56:22.080Z,60.74
2018-09-13T20:58:51.657Z,60.69
2018-09-13T21:01:20.735Z,60.77
2018-09-13T21:03:49.800Z,61.14
2018-09-13T21:06:18.816Z,61.68
2018-09-13T21:08:47.904Z,61.77
2018-09-13T21:11:17.089Z,62.00
2018-09-13T21:13:46.490Z,62.22
2018-09-13T21:16:15.922Z,62.17
2018-09-13T21:18:44.982Z,62.24
2018-09-13T21:21:14.115Z,62.32
2018-09-13T21:23:43.206Z,62.25
2018-09-13T21:26:12.360Z,62.22
2018-09-13T21:28:42.332Z,62.26
2018-09-13T21:31:11.393Z,62.32
2018-09-13T21:33:40.381Z,62.13
2018-09-13T21:36:09.444Z,62.08
2018-09-13T21:38:38.441Z,62.14
2018-09-13T21:41:08.500Z,62.09
2018-09-13T21:43:37.487Z,62.12
2018-09-13T21:46:06.554Z,62.09
2018-09-13T21:48:35.594Z,62.19
2018-09-13T21:51:04.603Z,62.33
2018-09-13T21:53:33.625Z,62.40
2018-09-13T21:56:02.636Z,62.54
2018-09-13T21:58:31.633Z,62.84
2018-09-13T22:01:00.705Z,62.92
2018-09-13T22:03:29.697Z,62.94
2018-09-13T22:05:58.783Z,62.92
2018-09-13T22:08:27.790Z,62.89
2018-09-13T22:10:56.827Z,63.22
2018-09-13T22:13:29.955Z,62.89
2018-09-13T22:15:59.029Z,63.25
2018-09-13T22:18:46.157Z,62.93
2018-09-13T22:21:15.759Z,62.59
2018-09-13T22:24:01.429Z,62.71
2018-09-13T22:26:46.257Z,62.71
2018-09-13T22:29:31.573Z,62.82
2018-09-13T22:32:16.441Z,62.93
2018-09-13T22:34:45.787Z,62.51
2018-09-13T22:37:31.607Z,63.01
2018-09-13T22:40:01.094Z,62.92
2018-09-13T22:42:48.596Z,62.98
2018-09-13T22:45:32.943Z,63.09
2018-09-13T22:48:02.017Z,63.18
2018-09-13T22:50:47.747Z,63.37
2018-09-13T22:53:34.371Z,63.03
2018-09-13T22:56:17.279Z,63.06
2018-09-13T22:58:46.630Z,62.76
2018-09-13T23:01:36.394Z,63.20
2018-09-13T23:04:23.889Z,63.04
2018-09-13T23:07:11.818Z,62.88
2018-09-13T23:09:56.285Z,62.77
2018-09-13T23:12:25.408Z,63.04
2018-09-13T23:14:54.433Z,63.03
2018-09-13T23:17:23.514Z,62.83
2018-09-13T23:19:52.548Z,62.51
2018-09-13T23:22:21.623Z,61.87
2018-09-13T23:24:50.684Z,61.78
2018-09-13T23:27:19.676Z,61.62
2018-09-13T23:29:48.689Z,61.52
2018-09-13T23:32:17.787Z,60.92
2018-09-13T23:34:46.882Z,60.57
2018-09-13T23:37:15.876Z,61.08
2018-09-13T23:39:45.203Z,61.58
2018-09-13T23:42:13.935Z,62.09
2018-09-13T23:44:42.956Z,62.58
2018-09-13T23:47:12.916Z,62.95
2018-09-13T23:49:42.143Z,63.56
2018-09-13T23:52:11.240Z,63.99
2018-09-13T23:54:40.247Z,64.02
2018-09-13T23:57:09.238Z,64.79
2018-09-13T23:59:38.333Z,64.93
